KDSV

Dansville Municipal Airport

Dansville, New York, USA
METAR KDSV 210354Z AUTO 16008KT 10SM CLR 19/17 A3005 RMK AO2 SLP181 T01890167
Observed Flight Rules
Aug-21 @ 03:54 UTC (16 minutes ago) Visual Flight Rules
Wind Visibility Clouds
160° at 8 knots 10 miles
  • Clear skies
Temperatures Readings
Current 19°C / 66°F
Dewpoint 17°C / 63°F
Humidity 88%
Altimeter 30.05" Hg
Pressure 1018.1 hPa
Elevation 198
METAR KDSV 210354Z AUTO 16008KT 10SM CLR 19/17 A3005 RMK AO2 SLP181 T01890167
Observed Flight Rules
Aug-21 @ 03:54 UTC
(16 minutes ago)
VFR
Wind Visibility
160° at 8 knots 10 miles
Clouds
  • Clear skies
Temperature Dewpoint
19°C / 66°F 17°C / 63°F
Humidity Altimeter Pressure
88% 30.05" Hg 1018.1 hPa